Time;durP1;ratioP1;P1;durP2;ratioP2;P2;SDS_P1;SDS_P2;PMS_P1;PMS_P2;Temp;Humidity;BMP_temperature;BMP_pressure;BME280_temperature;BME280_humidity;BME280_pressure;Samples;Min_cycle;Max_cycle;Signal;HPM_P1;HPM_P2
2024/02/06 00:00:54;;;;;;;0.00;0.00;;;27.80;31.00;;;;;;5009066;28;20217;-49
2024/02/06 00:03:24;;;;;;;0.00;0.00;;;27.80;31.00;;;;;;5007950;28;20251;-47
2024/02/06 00:05:55;;;;;;;0.00;0.00;;;27.80;30.90;;;;;;4992239;28;20249;-46
2024/02/06 00:08:28;;;;;;;0.00;0.00;;;27.80;30.90;;;;;;4989175;28;20618;-44
2024/02/06 00:10:58;;;;;;;0.00;0.00;;;27.90;31.00;;;;;;5000741;28;20205;-46
2024/02/06 00:13:29;;;;;;;0.00;0.00;;;27.90;31.00;;;;;;5008839;28;20201;-41
2024/02/06 00:15:59;;;;;;;0.00;0.00;;;28.00;30.80;;;;;;5008027;28;20201;-44
2024/02/06 00:18:30;;;;;;;0.00;0.00;;;27.90;30.70;;;;;;5008669;28;20224;-48
2024/02/06 00:21:01;;;;;;;0.00;0.00;;;27.90;30.60;;;;;;5008065;28;20251;-47
2024/02/06 00:23:33;;;;;;;0.00;0.00;;;28.00;30.60;;;;;;5008432;28;20235;-44
2024/02/06 00:26:04;;;;;;;0.00;0.00;;;28.00;30.30;;;;;;5008611;28;20205;-45
2024/02/06 00:28:35;;;;;;;0.00;0.00;;;28.00;30.30;;;;;;5008764;28;20688;-45
2024/02/06 00:31:05;;;;;;;0.00;0.00;;;28.00;30.20;;;;;;5008216;28;20223;-45
2024/02/06 00:33:36;;;;;;;0.00;0.00;;;28.10;30.30;;;;;;5007679;28;20212;-43
2024/02/06 00:36:07;;;;;;;0.00;0.00;;;28.10;30.30;;;;;;5007544;28;20201;-47
2024/02/06 00:38:40;;;;;;;0.00;0.00;;;28.10;30.00;;;;;;5007848;28;20766;-49
2024/02/06 00:41:11;;;;;;;0.00;0.00;;;28.10;30.00;;;;;;5008230;28;20215;-46
2024/02/06 00:43:42;;;;;;;0.00;0.00;;;28.10;30.20;;;;;;5007710;28;20905;-48
2024/02/06 00:46:12;;;;;;;0.00;0.00;;;28.10;30.30;;;;;;5008012;28;20197;-47
2024/02/06 00:48:43;;;;;;;0.00;0.00;;;28.10;30.40;;;;;;5005436;28;20224;-46
2024/02/06 00:51:13;;;;;;;0.00;0.00;;;28.20;30.30;;;;;;5007738;28;20197;-40
2024/02/06 00:53:46;;;;;;;0.00;0.00;;;28.20;30.40;;;;;;5006793;28;20200;-41
2024/02/06 00:56:17;;;;;;;0.00;0.00;;;28.20;30.40;;;;;;5007713;28;20220;-41
2024/02/06 00:58:47;;;;;;;0.00;0.00;;;28.20;30.40;;;;;;5007277;28;20232;-42
2024/02/06 01:01:18;;;;;;;0.00;0.00;;;28.30;30.50;;;;;;5007161;28;20213;-48
2024/02/06 01:03:49;;;;;;;0.00;0.00;;;28.30;30.50;;;;;;4988128;28;20230;-46
2024/02/06 01:06:21;;;;;;;0.00;0.00;;;28.30;30.50;;;;;;4988181;28;20205;-45
2024/02/06 01:08:57;;;;;;;0.00;0.00;;;28.40;30.60;;;;;;4988850;28;20255;-55
2024/02/06 01:11:27;;;;;;;0.00;0.00;;;28.30;30.50;;;;;;5004001;28;20239;-45
2024/02/06 01:13:58;;;;;;;0.00;0.00;;;28.40;30.40;;;;;;5007615;28;20220;-43
2024/02/06 01:16:29;;;;;;;0.00;0.00;;;28.40;30.20;;;;;;5004339;28;20203;-41
2024/02/06 01:18:59;;;;;;;0.00;0.00;;;28.40;30.20;;;;;;5007994;28;20693;-42
2024/02/06 01:21:30;;;;;;;0.00;0.00;;;28.40;30.10;;;;;;5005518;28;20669;-40
2024/02/06 01:24:02;;;;;;;0.00;0.00;;;28.50;30.00;;;;;;5006259;28;20229;-40
2024/02/06 01:26:33;;;;;;;0.00;0.00;;;28.50;30.00;;;;;;5006691;28;20199;-41
2024/02/06 01:29:04;;;;;;;0.00;0.00;;;28.50;30.10;;;;;;5007013;28;20684;-41
2024/02/06 01:31:35;;;;;;;0.00;0.00;;;28.50;30.00;;;;;;5006656;28;20197;-40
2024/02/06 01:34:06;;;;;;;0.00;0.00;;;28.60;30.60;;;;;;5006960;28;20201;-45
2024/02/06 01:36:37;;;;;;;0.00;0.00;;;28.60;30.00;;;;;;5007947;28;20603;-40
2024/02/06 01:39:09;;;;;;;0.00;0.00;;;28.60;30.00;;;;;;5007424;28;20217;-45
2024/02/06 01:41:40;;;;;;;0.00;0.00;;;28.60;30.60;;;;;;5007466;28;20216;-46
2024/02/06 01:44:11;;;;;;;0.00;0.00;;;28.60;30.00;;;;;;5006369;28;20232;-40
2024/02/06 01:46:42;;;;;;;0.00;0.00;;;28.60;30.10;;;;;;5007190;28;20681;-40
2024/02/06 01:49:14;;;;;;;0.00;0.00;;;28.60;30.20;;;;;;5006698;28;20591;-42
2024/02/06 01:51:47;;;;;;;0.00;0.00;;;28.70;30.20;;;;;;5007036;28;20196;-45
2024/02/06 01:54:22;;;;;;;0.00;0.00;;;28.70;30.20;;;;;;5007503;28;20669;-40
2024/02/06 01:56:53;;;;;;;0.00;0.00;;;28.70;30.10;;;;;;5006626;28;20204;-40
2024/02/06 01:59:24;;;;;;;0.00;0.00;;;28.70;30.10;;;;;;5008939;28;20200;-46
2024/02/06 02:01:55;;;;;;;0.00;0.00;;;28.80;30.10;;;;;;5010551;28;20317;-41
2024/02/06 02:04:26;;;;;;;0.00;0.00;;;28.80;30.10;;;;;;5010974;28;20235;-41
2024/02/06 02:06:59;;;;;;;0.00;0.00;;;28.80;30.00;;;;;;5010450;28;20212;-42
2024/02/06 02:09:31;;;;;;;0.00;0.00;;;28.80;30.00;;;;;;5003716;28;20611;-41
2024/02/06 02:12:02;;;;;;;0.00;0.00;;;28.80;29.90;;;;;;4990991;28;20211;-42
2024/02/06 02:14:33;;;;;;;0.00;0.00;;;28.80;29.90;;;;;;4991204;28;20309;-41
2024/02/06 02:17:04;;;;;;;0.00;0.00;;;28.90;29.90;;;;;;4991373;28;20783;-42
2024/02/06 02:19:35;;;;;;;0.00;0.00;;;28.90;29.90;;;;;;4990359;28;20280;-41
2024/02/06 02:22:08;;;;;;;0.00;0.00;;;28.90;29.80;;;;;;5001622;28;20239;-44
2024/02/06 02:24:40;;;;;;;0.00;0.00;;;28.90;29.80;;;;;;4991782;28;20260;-47
2024/02/06 02:27:12;;;;;;;0.00;0.00;;;28.90;29.70;;;;;;4990389;28;20295;-48
2024/02/06 02:29:44;;;;;;;0.00;0.00;;;28.90;29.50;;;;;;4993141;28;20201;-46
2024/02/06 02:32:16;;;;;;;0.00;0.00;;;29.00;29.50;;;;;;4990375;28;20206;-46
2024/02/06 02:34:51;;;;;;;0.00;0.00;;;29.00;29.50;;;;;;4995257;28;20211;-46
2024/02/06 02:37:23;;;;;;;0.00;0.00;;;29.00;29.50;;;;;;5010164;28;20696;-45
2024/02/06 02:39:54;;;;;;;0.00;0.00;;;29.00;29.40;;;;;;5010960;28;20227;-49
2024/02/06 02:42:25;;;;;;;0.00;0.00;;;29.00;29.20;;;;;;5009572;28;20251;-45
2024/02/06 02:44:56;;;;;;;0.00;0.00;;;29.10;29.30;;;;;;5009015;28;20367;-45
2024/02/06 02:47:27;;;;;;;0.00;0.00;;;29.10;29.30;;;;;;5009153;28;20220;-46
2024/02/06 02:49:58;;;;;;;0.00;0.00;;;29.10;29.80;;;;;;5010065;28;20201;-48
2024/02/06 02:52:30;;;;;;;0.00;0.00;;;29.10;29.30;;;;;;5009943;28;20240;-46
2024/02/06 02:55:01;;;;;;;0.00;0.00;;;29.10;29.30;;;;;;5009452;28;20205;-45
2024/02/06 02:57:32;;;;;;;0.00;0.00;;;29.10;29.20;;;;;;5009931;28;20741;-40
2024/02/06 03:00:04;;;;;;;0.00;0.00;;;29.10;29.20;;;;;;5009230;28;20675;-51
2024/02/06 03:02:34;;;;;;;0.00;0.00;;;29.20;29.40;;;;;;4997617;28;20227;-42
2024/02/06 03:05:05;;;;;;;0.00;0.00;;;29.20;27.40;;;;;;5008596;28;20803;-47
2024/02/06 03:07:38;;;;;;;0.00;0.00;;;29.10;27.00;;;;;;5009600;28;20646;-48
2024/02/06 03:10:09;;;;;;;0.00;0.00;;;29.10;26.90;;;;;;5008299;28;20208;-46
2024/02/06 03:12:40;;;;;;;0.00;0.00;;;29.10;27.00;;;;;;5009682;28;20201;-45
2024/02/06 03:15:11;;;;;;;0.00;0.00;;;29.20;26.90;;;;;;5009028;28;20197;-46
2024/02/06 03:17:42;;;;;;;0.00;0.00;;;29.20;26.90;;;;;;5008850;28;20713;-47
2024/02/06 03:20:13;;;;;;;0.00;0.00;;;29.20;27.00;;;;;;5008705;28;20193;-47
2024/02/06 03:22:46;;;;;;;0.00;0.00;;;29.20;27.10;;;;;;5008262;28;20203;-46
2024/02/06 03:25:17;;;;;;;0.00;0.00;;;29.20;27.10;;;;;;5008460;28;20228;-45
2024/02/06 03:27:48;;;;;;;0.00;0.00;;;29.20;27.20;;;;;;5008798;28;20240;-44
2024/02/06 03:30:18;;;;;;;0.00;0.00;;;29.20;27.40;;;;;;5008487;28;20215;-46
2024/02/06 03:32:49;;;;;;;0.00;0.00;;;29.20;27.50;;;;;;4993044;28;20658;-45
2024/02/06 03:35:20;;;;;;;0.00;0.00;;;29.30;27.80;;;;;;4992729;28;20600;-45
2024/02/06 03:37:53;;;;;;;0.00;0.00;;;29.30;27.70;;;;;;5008493;28;20216;-44
2024/02/06 03:40:23;;;;;;;0.00;0.00;;;29.30;27.90;;;;;;5008173;28;20200;-45
2024/02/06 03:42:54;;;;;;;0.00;0.00;;;29.30;27.70;;;;;;5008830;28;20208;-44
2024/02/06 03:45:25;;;;;;;0.00;0.00;;;29.30;28.00;;;;;;5009006;28;20240;-47
2024/02/06 03:47:56;;;;;;;0.00;0.00;;;29.30;27.50;;;;;;5008928;28;20251;-43
2024/02/06 03:50:26;;;;;;;0.00;0.00;;;29.30;27.70;;;;;;5008674;28;20205;-43
2024/02/06 03:52:59;;;;;;;0.00;0.00;;;29.40;27.70;;;;;;5009050;28;20699;-44
2024/02/06 03:55:30;;;;;;;0.00;0.00;;;29.40;27.90;;;;;;5007870;28;20639;-47
2024/02/06 03:58:00;;;;;;;0.00;0.00;;;29.40;28.00;;;;;;5008626;28;20227;-44
2024/02/06 04:00:31;;;;;;;0.00;0.00;;;29.40;28.10;;;;;;5008018;28;20201;-48
2024/02/06 04:03:03;;;;;;;0.00;0.00;;;29.40;28.10;;;;;;5009364;28;20200;-47
2024/02/06 04:05:33;;;;;;;0.00;0.00;;;29.50;28.20;;;;;;5008706;28;20233;-45
2024/02/06 04:08:06;;;;;;;0.00;0.00;;;29.50;28.30;;;;;;5007409;28;20235;-48
2024/02/06 04:10:37;;;;;;;0.00;0.00;;;29.50;28.30;;;;;;5008007;28;20197;-41
2024/02/06 04:13:08;;;;;;;0.00;0.00;;;29.50;28.40;;;;;;5008301;28;20247;-41
2024/02/06 04:15:39;;;;;;;0.00;0.00;;;29.50;28.40;;;;;;5004633;28;20575;-43
2024/02/06 04:18:10;;;;;;;0.00;0.00;;;29.50;28.30;;;;;;5007978;28;20227;-44
2024/02/06 04:20:41;;;;;;;0.00;0.00;;;29.50;28.40;;;;;;5008463;28;20720;-41
2024/02/06 04:23:13;;;;;;;0.00;0.00;;;29.50;28.40;;;;;;5007370;28;20200;-47
2024/02/06 04:25:44;;;;;;;0.00;0.00;;;29.50;28.60;;;;;;5007975;28;20624;-44
2024/02/06 04:28:15;;;;;;;0.00;0.00;;;29.60;28.80;;;;;;5007663;28;20244;-46
2024/02/06 04:30:46;;;;;;;0.00;0.00;;;29.60;28.80;;;;;;5008458;28;20201;-47
2024/02/06 04:33:16;;;;;;;0.00;0.00;;;29.50;28.90;;;;;;5006653;28;20461;-46
2024/02/06 04:35:47;;;;;;;0.00;0.00;;;29.60;28.80;;;;;;4999063;28;20200;-48
2024/02/06 04:38:20;;;;;;;0.00;0.00;;;29.60;28.80;;;;;;5007797;28;20580;-42
2024/02/06 04:40:50;;;;;;;0.00;0.00;;;29.60;28.80;;;;;;5007613;28;20208;-47
2024/02/06 04:43:22;;;;;;;0.00;0.00;;;29.60;28.80;;;;;;5004739;28;20197;-44
2024/02/06 04:45:53;;;;;;;0.00;0.00;;;29.60;28.70;;;;;;4992507;28;20224;-44
2024/02/06 04:48:23;;;;;;;0.00;0.00;;;29.60;28.80;;;;;;5008414;28;20225;-42
2024/02/06 04:50:54;;;;;;;0.00;0.00;;;29.60;28.90;;;;;;5007827;28;20193;-44
2024/02/06 04:53:27;;;;;;;0.00;0.00;;;29.60;29.00;;;;;;5007510;28;20224;-48
2024/02/06 04:55:58;;;;;;;0.00;0.00;;;29.60;29.00;;;;;;5008115;28;20779;-47
2024/02/06 04:58:28;;;;;;;0.00;0.00;;;29.60;29.10;;;;;;5007402;28;20221;-49
2024/02/06 05:00:59;;;;;;;0.00;0.00;;;29.60;29.10;;;;;;5008586;28;20208;-44
2024/02/06 05:03:30;;;;;;;0.00;0.00;;;29.60;29.10;;;;;;5005833;28;20286;-47
2024/02/06 05:06:01;;;;;;;0.00;0.00;;;29.60;29.20;;;;;;5006442;28;20264;-48
2024/02/06 05:08:34;;;;;;;0.00;0.00;;;29.60;29.20;;;;;;4997658;28;20741;-47
2024/02/06 05:11:04;;;;;;;0.00;0.00;;;29.70;29.30;;;;;;5002457;28;20302;-45
2024/02/06 05:13:35;;;;;;;0.00;0.00;;;29.70;29.30;;;;;;5007770;28;20208;-45
2024/02/06 05:16:07;;;;;;;0.00;0.00;;;29.70;29.20;;;;;;5008029;28;20682;-46
2024/02/06 05:18:37;;;;;;;0.00;0.00;;;29.70;29.20;;;;;;5007811;28;20391;-45
2024/02/06 05:21:08;;;;;;;0.00;0.00;;;29.70;29.30;;;;;;5007990;28;20209;-44
2024/02/06 05:23:41;;;;;;;0.00;0.00;;;29.70;29.30;;;;;;4998542;28;20674;-45
2024/02/06 05:26:12;;;;;;;0.00;0.00;;;29.70;29.40;;;;;;4988025;28;20237;-46
2024/02/06 05:28:43;;;;;;;0.00;0.00;;;29.70;29.50;;;;;;5004223;28;20217;-48
2024/02/06 05:31:14;;;;;;;0.00;0.00;;;29.70;29.50;;;;;;5007608;28;20723;-46
2024/02/06 05:33:44;;;;;;;0.00;0.00;;;29.70;29.50;;;;;;5009166;28;20204;-47
2024/02/06 05:36:15;;;;;;;0.00;0.00;;;29.70;29.50;;;;;;5011058;28;20201;-48
2024/02/06 05:38:48;;;;;;;0.00;0.00;;;29.70;29.60;;;;;;5011206;28;20220;-47
2024/02/06 05:41:19;;;;;;;0.00;0.00;;;29.70;29.50;;;;;;5011217;28;20545;-47
2024/02/06 05:43:49;;;;;;;0.00;0.00;;;29.70;29.60;;;;;;5010877;28;20278;-49
2024/02/06 05:46:20;;;;;;;0.00;0.00;;;29.70;29.70;;;;;;5011096;28;20258;-47
2024/02/06 05:48:51;;;;;;;0.00;0.00;;;29.70;29.70;;;;;;5011149;28;20227;-47
2024/02/06 05:51:21;;;;;;;0.00;0.00;;;29.70;29.80;;;;;;5011640;28;20201;-46
2024/02/06 05:53:54;;;;;;;0.00;0.00;;;29.70;29.80;;;;;;5011048;28;20675;-48
2024/02/06 05:56:25;;;;;;;0.00;0.00;;;29.70;29.80;;;;;;5010451;28;20227;-45
2024/02/06 05:58:56;;;;;;;0.00;0.00;;;29.70;29.90;;;;;;5010770;28;20616;-48
2024/02/06 06:01:26;;;;;;;0.00;0.00;;;29.70;29.90;;;;;;5011173;28;20215;-45
2024/02/06 06:03:57;;;;;;;0.00;0.00;;;29.70;29.90;;;;;;5002990;28;20694;-44
2024/02/06 06:06:28;;;;;;;0.00;0.00;;;29.70;29.90;;;;;;4994655;28;20235;-44
2024/02/06 06:09:01;;;;;;;0.00;0.00;;;29.80;30.00;;;;;;4995233;28;20220;-44
2024/02/06 06:11:31;;;;;;;0.00;0.00;;;29.70;30.00;;;;;;5010216;28;20228;-44
2024/02/06 06:14:02;;;;;;;0.00;0.00;;;29.80;30.00;;;;;;5011352;28;20201;-42
2024/02/06 06:16:33;;;;;;;0.00;0.00;;;29.70;30.00;;;;;;4996976;28;20198;-41
2024/02/06 06:19:03;;;;;;;0.00;0.00;;;29.80;30.00;;;;;;4990982;28;20228;-41
2024/02/06 06:21:35;;;;;;;0.00;0.00;;;29.70;30.00;;;;;;4999985;28;20201;-41
2024/02/06 06:24:08;;;;;;;0.00;0.00;;;29.70;30.10;;;;;;5010531;28;20204;-41
2024/02/06 06:26:40;;;;;;;0.00;0.00;;;29.70;30.10;;;;;;5010905;28;20319;-41
2024/02/06 06:29:11;;;;;;;0.00;0.00;;;29.70;30.20;;;;;;5010350;28;20303;-44
2024/02/06 06:31:42;;;;;;;0.00;0.00;;;29.70;30.20;;;;;;5009329;28;20751;-42
2024/02/06 06:34:13;;;;;;;0.00;0.00;;;29.70;30.20;;;;;;5010297;28;20196;-42
2024/02/06 06:36:43;;;;;;;0.00;0.00;;;29.70;30.30;;;;;;5010319;28;20200;-44
2024/02/06 06:39:17;;;;;;;0.00;0.00;;;29.70;30.20;;;;;;5010398;28;20197;-47
2024/02/06 06:41:48;;;;;;;0.00;0.00;;;29.70;30.40;;;;;;5010419;28;20287;-43
2024/02/06 06:44:19;;;;;;;0.00;0.00;;;29.70;30.40;;;;;;5009828;28;20628;-48
2024/02/06 06:46:50;;;;;;;0.00;0.00;;;29.70;30.40;;;;;;5009214;28;20237;-43
2024/02/06 06:49:20;;;;;;;0.00;0.00;;;29.70;30.40;;;;;;5009583;28;20220;-41
2024/02/06 06:51:51;;;;;;;0.00;0.00;;;29.70;30.40;;;;;;5009787;28;20205;-43
2024/02/06 06:54:24;;;;;;;0.00;0.00;;;29.70;30.40;;;;;;5009900;28;20572;-43
2024/02/06 06:56:54;;;;;;;0.00;0.00;;;29.60;30.40;;;;;;5009629;28;20215;-43
2024/02/06 06:59:25;;;;;;;0.00;0.00;;;29.60;30.40;;;;;;5010014;28;20243;-45
2024/02/06 07:01:57;;;;;;;0.00;0.00;;;29.70;30.40;;;;;;5009320;28;20201;-42
2024/02/06 07:04:28;;;;;;;0.00;0.00;;;29.60;30.40;;;;;;5009985;28;20193;-41
2024/02/06 07:06:59;;;;;;;0.00;0.00;;;29.60;30.40;;;;;;5008847;28;20232;-44
2024/02/06 07:09:31;;;;;;;0.00;0.00;;;29.70;30.50;;;;;;5010236;28;20201;-41
2024/02/06 07:12:02;;;;;;;0.00;0.00;;;29.60;30.50;;;;;;4989894;28;20193;-44
2024/02/06 07:14:34;;;;;;;0.00;0.00;;;29.60;30.50;;;;;;5000649;28;20205;-42
2024/02/06 07:17:05;;;;;;;0.00;0.00;;;29.60;30.50;;;;;;5009998;28;20216;-41
2024/02/06 07:19:36;;;;;;;0.00;0.00;;;29.60;30.50;;;;;;5006746;28;20200;-41
2024/02/06 07:22:07;;;;;;;0.00;0.00;;;29.60;30.40;;;;;;5006442;28;20193;-41
2024/02/06 07:24:39;;;;;;;0.00;0.00;;;29.60;30.30;;;;;;5007302;28;20198;-50
2024/02/06 07:27:10;;;;;;;0.00;0.00;;;29.60;30.30;;;;;;4991575;28;20225;-51
2024/02/06 07:29:41;;;;;;;0.00;0.00;;;29.50;29.90;;;;;;5009198;28;20201;-50
2024/02/06 07:32:12;;;;;;;0.00;0.00;;;29.50;29.00;;;;;;5008857;28;20212;-44
2024/02/06 07:34:42;;;;;;;0.00;0.00;;;29.50;28.50;;;;;;5008935;28;20204;-47
2024/02/06 07:37:13;;;;;;;0.00;0.00;;;29.40;28.30;;;;;;5009536;28;20693;-45
2024/02/06 07:39:46;;;;;;;0.00;0.00;;;29.40;28.40;;;;;;5009252;28;20205;-44
2024/02/06 07:42:16;;;;;;;0.00;0.00;;;29.30;28.40;;;;;;5008956;28;20689;-48
2024/02/06 07:44:47;;;;;;;0.00;0.00;;;29.30;28.60;;;;;;5009261;28;20212;-47
2024/02/06 07:47:18;;;;;;;0.00;0.00;;;29.30;28.80;;;;;;5008630;28;20228;-45
2024/02/06 07:49:48;;;;;;;0.00;0.00;;;29.30;29.00;;;;;;5008954;28;20197;-41
2024/02/06 07:52:19;;;;;;;0.00;0.00;;;29.20;29.00;;;;;;5007808;28;20696;-46
2024/02/06 07:54:52;;;;;;;0.00;0.00;;;29.20;29.10;;;;;;5008060;28;20200;-45
2024/02/06 07:57:22;;;;;;;0.00;0.00;;;29.30;29.20;;;;;;5007484;28;20224;-44
2024/02/06 07:59:53;;;;;;;0.00;0.00;;;29.20;29.20;;;;;;5008016;28;20200;-47
2024/02/06 08:02:24;;;;;;;0.00;0.00;;;29.20;29.20;;;;;;5007964;28;20657;-45
2024/02/06 08:04:56;;;;;;;0.00;0.00;;;29.20;29.20;;;;;;5007753;28;20193;-46
2024/02/06 08:07:28;;;;;;;0.00;0.00;;;29.20;29.20;;;;;;5008527;28;20232;-44
2024/02/06 08:10:00;;;;;;;0.00;0.00;;;29.20;29.30;;;;;;5007403;28;20328;-48
2024/02/06 08:12:32;;;;;;;0.00;0.00;;;29.20;29.30;;;;;;5009402;28;20200;-48
2024/02/06 08:15:04;;;;;;;0.00;0.00;;;29.20;29.30;;;;;;5008069;28;20193;-44
2024/02/06 08:17:36;;;;;;;0.00;0.00;;;29.20;29.30;;;;;;5008306;28;20571;-48
2024/02/06 08:20:09;;;;;;;0.00;0.00;;;29.20;29.20;;;;;;5007551;28;20196;-49
2024/02/06 08:22:40;;;;;;;0.00;0.00;;;29.20;29.20;;;;;;5008092;28;20631;-41
2024/02/06 08:25:15;;;;;;;0.00;0.00;;;29.20;29.10;;;;;;5007986;28;20202;-41
2024/02/06 08:27:46;;;;;;;0.00;0.00;;;29.10;29.10;;;;;;5005821;28;20290;-44
2024/02/06 08:30:17;;;;;;;0.00;0.00;;;29.10;29.10;;;;;;5007777;28;20554;-45
2024/02/06 08:32:48;;;;;;;0.00;0.00;;;29.10;29.00;;;;;;5007680;28;20200;-45
2024/02/06 08:35:19;;;;;;;0.00;0.00;;;29.10;29.10;;;;;;5005294;28;20258;-49
2024/02/06 08:37:50;;;;;;;0.00;0.00;;;29.10;29.10;;;;;;5006495;28;20216;-44
2024/02/06 08:40:23;;;;;;;0.00;0.00;;;29.10;29.20;;;;;;5007823;28;20672;-49
2024/02/06 08:42:53;;;;;;;0.00;0.00;;;29.10;29.30;;;;;;5008299;28;20200;-49
2024/02/06 08:45:24;;;;;;;0.00;0.00;;;29.10;29.40;;;;;;5008158;28;20201;-47
2024/02/06 08:47:55;;;;;;;0.00;0.00;;;29.10;29.50;;;;;;4998116;28;20642;-47
2024/02/06 08:50:25;;;;;;;0.00;0.00;;;29.10;29.50;;;;;;5006957;28;20212;-47
2024/02/06 08:52:56;;;;;;;0.00;0.00;;;29.00;29.50;;;;;;5008376;28;20307;-44
2024/02/06 08:55:29;;;;;;;0.00;0.00;;;29.00;29.50;;;;;;5007545;28;20220;-48
2024/02/06 08:57:59;;;;;;;0.00;0.00;;;29.00;29.60;;;;;;5007861;28;20221;-48
2024/02/06 09:00:30;;;;;;;0.00;0.00;;;29.00;29.60;;;;;;5006989;28;20211;-47
2024/02/06 09:03:01;;;;;;;0.00;0.00;;;29.00;29.60;;;;;;5007138;28;20679;-46
2024/02/06 09:05:31;;;;;;;0.00;0.00;;;29.00;29.60;;;;;;5007690;28;20649;-44
2024/02/06 09:08:02;;;;;;;0.00;0.00;;;29.00;29.50;;;;;;5007318;28;20711;-45
2024/02/06 09:10:35;;;;;;;0.00;0.00;;;29.00;29.50;;;;;;5011147;28;20204;-42
2024/02/06 09:13:06;;;;;;;0.00;0.00;;;29.00;29.50;;;;;;5011705;28;20556;-42
2024/02/06 09:15:36;;;;;;;0.00;0.00;;;28.90;29.40;;;;;;4998989;28;20193;-43
2024/02/06 09:18:07;;;;;;;0.00;0.00;;;29.00;29.40;;;;;;4991871;28;20222;-46
2024/02/06 09:20:38;;;;;;;0.00;0.00;;;28.90;29.40;;;;;;4991730;28;20208;-45
2024/02/06 09:23:09;;;;;;;0.00;0.00;;;28.90;29.40;;;;;;5010268;28;20224;-47
2024/02/06 09:25:43;;;;;;;0.00;0.00;;;28.90;29.40;;;;;;5004625;28;20208;-49
2024/02/06 09:28:14;;;;;;;0.00;0.00;;;28.90;29.40;;;;;;5011646;28;20224;-43
2024/02/06 09:30:44;;;;;;;0.00;0.00;;;28.90;29.50;;;;;;5011818;28;20201;-46
2024/02/06 09:33:15;;;;;;;0.00;0.00;;;28.80;29.50;;;;;;5011342;28;20620;-44
2024/02/06 09:35:46;;;;;;;0.00;0.00;;;28.90;29.60;;;;;;5011759;28;20205;-46
2024/02/06 09:38:17;;;;;;;0.00;0.00;;;28.80;29.50;;;;;;5011474;28;20307;-42
2024/02/06 09:40:50;;;;;;;0.00;0.00;;;28.80;29.60;;;;;;5011018;28;20213;-46
2024/02/06 09:43:21;;;;;;;0.00;0.00;;;28.80;29.70;;;;;;5010931;28;20196;-43
2024/02/06 09:45:52;;;;;;;0.00;0.00;;;28.80;29.70;;;;;;5011006;28;20228;-46
2024/02/06 09:48:24;;;;;;;0.00;0.00;;;28.80;29.80;;;;;;5011360;28;20225;-46
2024/02/06 09:50:55;;;;;;;0.00;0.00;;;28.80;29.80;;;;;;5010781;28;20204;-48
2024/02/06 09:53:30;;;;;;;0.00;0.00;;;28.80;29.80;;;;;;5010704;28;20216;-44
2024/02/06 09:56:03;;;;;;;0.00;0.00;;;28.80;29.80;;;;;;5010614;28;20211;-48
2024/02/06 09:58:35;;;;;;;0.00;0.00;;;28.80;29.80;;;;;;5006745;28;20221;-43
2024/02/06 10:01:10;;;;;;;0.00;0.00;;;28.80;29.80;;;;;;4991648;28;20205;-44
2024/02/06 10:03:44;;;;;;;0.00;0.00;;;28.80;29.80;;;;;;4996068;28;20762;-52
2024/02/06 10:06:19;;;;;;;0.00;0.00;;;28.80;29.90;;;;;;5014088;28;20610;-45
2024/02/06 10:08:51;;;;;;;0.00;0.00;;;28.70;29.80;;;;;;5012473;28;20218;-47
2024/02/06 10:11:24;;;;;;;0.00;0.00;;;28.70;29.70;;;;;;5006166;28;20197;-50
2024/02/06 10:13:55;;;;;;;0.00;0.00;;;28.70;29.70;;;;;;5003611;28;20198;-50
2024/02/06 10:16:26;;;;;;;0.00;0.00;;;28.70;29.70;;;;;;5003148;28;20199;-52
2024/02/06 10:18:59;;;;;;;0.00;0.00;;;28.70;30.10;;;;;;5011549;28;20213;-48
2024/02/06 10:21:30;;;;;;;0.00;0.00;;;28.60;29.60;;;;;;5013169;28;20692;-45
2024/02/06 10:24:05;;;;;;;0.00;0.00;;;28.60;29.60;;;;;;5013686;28;20236;-47
2024/02/06 10:26:38;;;;;;;0.00;0.00;;;28.60;29.60;;;;;;5008702;28;20250;-48
2024/02/06 10:29:11;;;;;;;0.00;0.00;;;28.60;29.60;;;;;;5013901;28;20213;-48
2024/02/06 10:31:42;;;;;;;0.00;0.00;;;28.60;29.60;;;;;;5014336;28;20197;-45
2024/02/06 10:34:14;;;;;;;0.00;0.00;;;28.60;29.60;;;;;;5014255;28;20200;-49
2024/02/06 10:36:45;;;;;;;0.00;0.00;;;28.50;29.60;;;;;;5013317;28;20197;-49
2024/02/06 10:39:16;;;;;;;0.00;0.00;;;28.60;29.70;;;;;;5013731;28;20200;-49
2024/02/06 10:41:48;;;;;;;0.00;0.00;;;28.60;29.70;;;;;;5013637;28;20627;-49
2024/02/06 10:44:24;;;;;;;0.00;0.00;;;28.50;29.70;;;;;;5012936;28;20197;-49
2024/02/06 10:47:02;;;;;;;0.00;0.00;;;28.50;29.70;;;;;;5004098;28;20217;-50
2024/02/06 10:49:33;;;;;;;0.00;0.00;;;28.50;29.70;;;;;;5012071;28;20196;-46
2024/02/06 10:52:08;;;;;;;0.00;0.00;;;28.50;29.70;;;;;;5010982;28;20191;-49
2024/02/06 10:54:39;;;;;;;0.00;0.00;;;28.50;29.70;;;;;;5013101;28;20192;-46
2024/02/06 10:57:15;;;;;;;0.00;0.00;;;28.50;29.70;;;;;;5013071;28;20279;-44
2024/02/06 10:59:53;;;;;;;0.00;0.00;;;28.50;29.70;;;;;;5010991;28;20192;-46
2024/02/06 11:02:27;;;;;;;0.00;0.00;;;28.50;29.70;;;;;;5010845;28;20192;-43
2024/02/06 11:05:06;;;;;;;0.00;0.00;;;28.50;29.80;;;;;;5012669;28;20594;-42
2024/02/06 11:07:47;;;;;;;0.00;0.00;;;28.40;29.70;;;;;;5012437;28;20228;-48
2024/02/06 11:10:21;;;;;;;0.00;0.00;;;28.40;29.70;;;;;;5006037;28;20197;-50
2024/02/06 11:12:59;;;;;;;0.00;0.00;;;28.40;29.70;;;;;;5003998;28;20553;-47
2024/02/06 11:15:31;;;;;;;0.00;0.00;;;28.40;29.70;;;;;;5011204;28;20189;-49
2024/02/06 11:18:02;;;;;;;0.00;0.00;;;28.40;29.70;;;;;;5010016;28;20223;-47
2024/02/06 11:20:34;;;;;;;0.00;0.00;;;28.40;29.70;;;;;;5002232;28;20189;-48
2024/02/06 11:23:08;;;;;;;0.00;0.00;;;28.40;29.70;;;;;;5010419;28;20587;-51
2024/02/06 11:25:43;;;;;;;0.00;0.00;;;28.40;29.80;;;;;;5012407;28;20558;-47
2024/02/06 11:28:18;;;;;;;0.00;0.00;;;28.30;29.70;;;;;;5012100;28;20278;-46
2024/02/06 11:30:49;;;;;;;0.00;0.00;;;28.30;29.70;;;;;;5010411;28;20192;-44
2024/02/06 11:33:19;;;;;;;0.00;0.00;;;28.30;29.80;;;;;;5012045;28;20189;-47
2024/02/06 11:35:50;;;;;;;0.00;0.00;;;28.30;29.90;;;;;;5012335;28;20201;-50
2024/02/06 11:38:28;;;;;;;0.00;0.00;;;28.30;30.00;;;;;;5012476;28;20208;-49
2024/02/06 11:41:09;;;;;;;0.00;0.00;;;28.20;30.00;;;;;;5006869;28;20196;-48
2024/02/06 11:43:41;;;;;;;0.00;0.00;;;28.30;30.00;;;;;;5006312;28;20565;-47
2024/02/06 11:46:13;;;;;;;0.00;0.00;;;28.30;30.00;;;;;;5012311;28;20189;-51
2024/02/06 11:48:46;;;;;;;0.00;0.00;;;28.30;30.00;;;;;;5009854;28;20213;-47
2024/02/06 11:51:28;;;;;;;0.00;0.00;;;28.20;30.00;;;;;;5012087;28;20512;-46
2024/02/06 11:53:58;;;;;;;0.00;0.00;;;28.20;30.00;;;;;;5011808;28;20188;-47
2024/02/06 11:56:29;;;;;;;0.00;0.00;;;28.20;30.00;;;;;;5011662;28;20193;-47
2024/02/06 11:59:02;;;;;;;0.00;0.00;;;28.20;30.00;;;;;;5011471;28;20209;-49
2024/02/06 12:01:33;;;;;;;0.00;0.00;;;28.20;30.00;;;;;;5011690;28;20205;-48
2024/02/06 12:04:05;;;;;;;0.00;0.00;;;28.20;30.00;;;;;;5012356;28;20728;-47
2024/02/06 12:06:36;;;;;;;0.00;0.00;;;28.20;30.00;;;;;;5012210;28;20712;-50
2024/02/06 12:09:08;;;;;;;0.00;0.00;;;28.20;30.10;;;;;;5012246;28;20232;-50
2024/02/06 12:11:40;;;;;;;0.00;0.00;;;28.20;30.10;;;;;;5011884;28;20212;-49
2024/02/06 12:14:14;;;;;;;0.00;0.00;;;28.10;30.00;;;;;;5012430;28;20219;-48
2024/02/06 12:16:47;;;;;;;0.00;0.00;;;28.10;30.10;;;;;;5012070;28;20205;-49
2024/02/06 12:19:18;;;;;;;0.00;0.00;;;28.20;30.10;;;;;;5011957;28;20201;-50
2024/02/06 12:21:49;;;;;;;0.00;0.00;;;28.10;30.10;;;;;;5011578;28;20201;-47
2024/02/06 12:24:22;;;;;;;0.00;0.00;;;28.10;30.20;;;;;;5011093;28;20680;-49
2024/02/06 12:26:52;;;;;;;0.00;0.00;;;28.10;30.20;;;;;;5012007;28;20240;-49
2024/02/06 12:29:25;;;;;;;0.00;0.00;;;28.10;30.20;;;;;;5009221;28;20570;-47
2024/02/06 12:31:56;;;;;;;0.00;0.00;;;28.10;30.30;;;;;;5012078;28;20197;-46
2024/02/06 12:34:27;;;;;;;0.00;0.00;;;28.10;30.30;;;;;;5011656;28;20197;-49
2024/02/06 12:36:57;;;;;;;0.00;0.00;;;28.10;30.40;;;;;;5011014;28;20197;-49
2024/02/06 12:39:30;;;;;;;0.00;0.00;;;28.10;30.50;;;;;;5011618;28;20203;-46
2024/02/06 12:42:05;;;;;;;0.00;0.00;;;28.00;30.40;;;;;;5011625;28;20675;-46
2024/02/06 12:44:38;;;;;;;0.00;0.00;;;28.00;30.40;;;;;;5011751;28;20227;-47
2024/02/06 12:47:09;;;;;;;0.00;0.00;;;28.00;30.50;;;;;;5011767;28;20224;-44
2024/02/06 12:49:40;;;;;;;0.00;0.00;;;28.00;30.50;;;;;;5011502;28;20258;-46
2024/02/06 12:52:11;;;;;;;0.00;0.00;;;28.00;30.50;;;;;;5011339;28;20200;-47
2024/02/06 12:54:42;;;;;;;0.00;0.00;;;28.00;30.60;;;;;;5011766;28;20200;-50
2024/02/06 12:57:12;;;;;;;0.00;0.00;;;27.90;30.50;;;;;;5011867;28;20239;-49
2024/02/06 12:59:49;;;;;;;0.00;0.00;;;28.00;30.60;;;;;;5011755;28;20207;-49
2024/02/06 13:02:20;;;;;;;0.00;0.00;;;28.00;30.50;;;;;;5011839;28;20196;-49
2024/02/06 13:04:52;;;;;;;0.00;0.00;;;27.90;30.50;;;;;;5011817;28;20236;-50
2024/02/06 13:07:24;;;;;;;0.00;0.00;;;27.90;30.50;;;;;;5011596;28;20232;-44
2024/02/06 13:10:03;;;;;;;0.00;0.00;;;27.90;30.50;;;;;;5011422;28;20204;-47